Alta, Indiana
Current Conditions -  °F | °C
As of 3:35 PM on Friday 31 Oct 2014 (Local Time) from KPRG Reporting Station
Overcast Overcast  
Wind Chill: 29°   Ceiling: 6000
Heat Index: 39°   Visibility: 10mi
Dew Point: 32°   Wind: 23mph
Humidity: 75%   Direction: 320°NW
Pressure: 30.13"   Gusts: 37mph
Location:  39.7643°N, 87.4119°W
Report Text: KPRG 311935Z AUTO 32020G32KT 10SM SCT027 SCT036 OVC060 04/00 A3013 RMK AO2 T00400000
Loading
Personal Weather Stations






























Interactive Weather Map
Tropical Storm Tracking
New forecast layout! Learn more

10-Day Weather Forecast

Advertisements
Track Severe Weather on mobile